sensor_id;sensor_type;location;lat;lon;timestamp;temperature;humidity
29577;DHT22;16509;53.862;10.672;2022-10-22T00:02:16;13.70;99.90
29577;DHT22;16509;53.862;10.672;2022-10-22T00:04:47;13.70;99.90
29577;DHT22;16509;53.862;10.672;2022-10-22T00:07:14;13.70;99.90
29577;DHT22;16509;53.862;10.672;2022-10-22T00:09:40;13.40;99.90
29577;DHT22;16509;53.862;10.672;2022-10-22T00:12:05;13.90;99.90
29577;DHT22;16509;53.862;10.672;2022-10-22T00:14:31;13.80;99.90
29577;DHT22;16509;53.862;10.672;2022-10-22T00:16:57;15.40;99.90
29577;DHT22;16509;53.862;10.672;2022-10-22T00:19:25;13.40;99.90
29577;DHT22;16509;53.862;10.672;2022-10-22T00:21:51;13.60;99.90
29577;DHT22;16509;53.862;10.672;2022-10-22T00:24:17;13.70;99.90
29577;DHT22;16509;53.862;10.672;2022-10-22T00:26:42;13.60;99.90
29577;DHT22;16509;53.862;10.672;2022-10-22T00:29:08;14.30;99.90
29577;DHT22;16509;53.862;10.672;2022-10-22T00:31:33;14.20;99.90
29577;DHT22;16509;53.862;10.672;2022-10-22T00:34:00;13.40;99.90
29577;DHT22;16509;53.862;10.672;2022-10-22T00:36:26;14.10;99.90
29577;DHT22;16509;53.862;10.672;2022-10-22T00:38:51;14.00;99.90
29577;DHT22;16509;53.862;10.672;2022-10-22T00:41:17;15.90;99.90
29577;DHT22;16509;53.862;10.672;2022-10-22T00:44:03;15.60;99.90
29577;DHT22;16509;53.862;10.672;2022-10-22T00:46:29;13.70;99.90
29577;DHT22;16509;53.862;10.672;2022-10-22T00:48:56;13.80;99.90
29577;DHT22;16509;53.862;10.672;2022-10-22T00:51:25;13.60;99.90
29577;DHT22;16509;53.862;10.672;2022-10-22T00:54:00;13.70;99.90
29577;DHT22;16509;53.862;10.672;2022-10-22T00:56:27;14.00;99.90
29577;DHT22;16509;53.862;10.672;2022-10-22T00:58:55;13.60;99.90
29577;DHT22;16509;53.862;10.672;2022-10-22T01:01:26;13.60;99.90
29577;DHT22;16509;53.862;10.672;2022-10-22T01:03:53;13.80;99.90
29577;DHT22;16509;53.862;10.672;2022-10-22T01:06:30;13.60;99.90
29577;DHT22;16509;53.862;10.672;2022-10-22T01:10:12;14.10;99.90
29577;DHT22;16509;53.862;10.672;2022-10-22T01:26:14;14.30;99.90
29577;DHT22;16509;53.862;10.672;2022-10-22T01:28:57;13.80;99.90
29577;DHT22;16509;53.862;10.672;2022-10-22T01:31:27;13.90;99.90
29577;DHT22;16509;53.862;10.672;2022-10-22T01:33:54;13.80;99.90
29577;DHT22;16509;53.862;10.672;2022-10-22T01:36:20;13.80;99.90
29577;DHT22;16509;53.862;10.672;2022-10-22T01:38:46;13.60;99.90
29577;DHT22;16509;53.862;10.672;2022-10-22T01:41:13;13.80;99.90
29577;DHT22;16509;53.862;10.672;2022-10-22T01:43:38;13.60;99.90
29577;DHT22;16509;53.862;10.672;2022-10-22T01:46:05;15.60;99.90
29577;DHT22;16509;53.862;10.672;2022-10-22T01:51:24;14.00;99.90
29577;DHT22;16509;53.862;10.672;2022-10-22T01:56:57;14.00;99.90
29577;DHT22;16509;53.862;10.672;2022-10-22T02:02:12;14.10;99.90
29577;DHT22;16509;53.862;10.672;2022-10-22T02:07:11;13.90;99.90
29577;DHT22;16509;53.862;10.672;2022-10-22T02:09:39;14.70;99.90
29577;DHT22;16509;53.862;10.672;2022-10-22T02:12:06;15.10;99.90
29577;DHT22;16509;53.862;10.672;2022-10-22T02:14:34;13.60;99.90
29577;DHT22;16509;53.862;10.672;2022-10-22T02:17:01;13.60;99.90
29577;DHT22;16509;53.862;10.672;2022-10-22T02:19:55;15.00;99.90
29577;DHT22;16509;53.862;10.672;2022-10-22T02:22:22;14.00;99.90
29577;DHT22;16509;53.862;10.672;2022-10-22T02:24:48;13.80;99.90
29577;DHT22;16509;53.862;10.672;2022-10-22T02:27:29;13.90;99.90
29577;DHT22;16509;53.862;10.672;2022-10-22T02:30:06;14.20;99.90
29577;DHT22;16509;53.862;10.672;2022-10-22T02:32:54;14.10;99.90
29577;DHT22;16509;53.862;10.672;2022-10-22T02:35:24;14.10;99.90
29577;DHT22;16509;53.862;10.672;2022-10-22T02:37:51;13.80;99.90
29577;DHT22;16509;53.862;10.672;2022-10-22T02:40:18;13.90;99.90
29577;DHT22;16509;53.862;10.672;2022-10-22T02:42:46;13.90;99.90
29577;DHT22;16509;53.862;10.672;2022-10-22T02:45:12;15.20;99.90
29577;DHT22;16509;53.862;10.672;2022-10-22T02:47:37;15.20;99.90
29577;DHT22;16509;53.862;10.672;2022-10-22T02:50:04;14.30;99.90
29577;DHT22;16509;53.862;10.672;2022-10-22T02:52:29;14.20;99.90
29577;DHT22;16509;53.862;10.672;2022-10-22T02:54:55;14.90;99.90
29577;DHT22;16509;53.862;10.672;2022-10-22T02:57:20;13.90;99.90
29577;DHT22;16509;53.862;10.672;2022-10-22T02:59:46;13.90;99.90
29577;DHT22;16509;53.862;10.672;2022-10-22T03:02:11;13.80;99.90
29577;DHT22;16509;53.862;10.672;2022-10-22T03:04:37;13.80;99.90
29577;DHT22;16509;53.862;10.672;2022-10-22T03:07:02;13.80;99.90
29577;DHT22;16509;53.862;10.672;2022-10-22T03:09:28;13.90;99.90
29577;DHT22;16509;53.862;10.672;2022-10-22T03:11:53;14.30;99.90
29577;DHT22;16509;53.862;10.672;2022-10-22T03:14:19;14.40;99.90
29577;DHT22;16509;53.862;10.672;2022-10-22T03:16:44;14.20;99.90
29577;DHT22;16509;53.862;10.672;2022-10-22T03:19:10;15.60;99.90
29577;DHT22;16509;53.862;10.672;2022-10-22T03:21:50;13.80;99.90
29577;DHT22;16509;53.862;10.672;2022-10-22T03:24:22;14.30;99.90
29577;DHT22;16509;53.862;10.672;2022-10-22T03:26:49;14.20;99.90
29577;DHT22;16509;53.862;10.672;2022-10-22T03:29:17;14.70;99.90
29577;DHT22;16509;53.862;10.672;2022-10-22T03:31:43;14.10;99.90
29577;DHT22;16509;53.862;10.672;2022-10-22T03:34:08;14.00;99.90
29577;DHT22;16509;53.862;10.672;2022-10-22T03:36:36;13.80;99.90
29577;DHT22;16509;53.862;10.672;2022-10-22T03:39:04;13.80;99.90
29577;DHT22;16509;53.862;10.672;2022-10-22T03:41:29;15.10;99.90
29577;DHT22;16509;53.862;10.672;2022-10-22T03:43:55;13.90;99.90
29577;DHT22;16509;53.862;10.672;2022-10-22T03:46:22;14.00;99.90
29577;DHT22;16509;53.862;10.672;2022-10-22T03:48:47;14.10;99.90
29577;DHT22;16509;53.862;10.672;2022-10-22T03:51:13;14.00;99.90
29577;DHT22;16509;53.862;10.672;2022-10-22T03:53:38;13.80;99.90
29577;DHT22;16509;53.862;10.672;2022-10-22T03:56:08;15.70;99.90
29577;DHT22;16509;53.862;10.672;2022-10-22T03:58:35;14.30;99.90
29577;DHT22;16509;53.862;10.672;2022-10-22T04:01:05;15.10;99.90
29577;DHT22;16509;53.862;10.672;2022-10-22T04:03:32;13.80;99.90
29577;DHT22;16509;53.862;10.672;2022-10-22T04:06:10;13.50;99.90
29577;DHT22;16509;53.862;10.672;2022-10-22T04:08:38;13.90;99.90
29577;DHT22;16509;53.862;10.672;2022-10-22T04:11:04;13.60;99.90
29577;DHT22;16509;53.862;10.672;2022-10-22T04:13:29;13.80;99.90
29577;DHT22;16509;53.862;10.672;2022-10-22T04:15:55;13.50;99.90
29577;DHT22;16509;53.862;10.672;2022-10-22T04:18:22;13.50;99.90
29577;DHT22;16509;53.862;10.672;2022-10-22T04:20:47;13.40;99.90
29577;DHT22;16509;53.862;10.672;2022-10-22T04:23:15;13.40;99.90
29577;DHT22;16509;53.862;10.672;2022-10-22T04:25:41;13.10;99.90
29577;DHT22;16509;53.862;10.672;2022-10-22T04:28:07;13.30;99.90
29577;DHT22;16509;53.862;10.672;2022-10-22T04:30:34;13.40;99.90
29577;DHT22;16509;53.862;10.672;2022-10-22T04:32:59;14.20;99.90
29577;DHT22;16509;53.862;10.672;2022-10-22T04:35:25;13.20;99.90
29577;DHT22;16509;53.862;10.672;2022-10-22T04:37:50;13.50;99.90
29577;DHT22;16509;53.862;10.672;2022-10-22T04:40:16;14.50;99.90
29577;DHT22;16509;53.862;10.672;2022-10-22T04:42:41;13.40;99.90
29577;DHT22;16509;53.862;10.672;2022-10-22T04:45:08;13.40;99.90
29577;DHT22;16509;53.862;10.672;2022-10-22T04:47:33;13.30;99.90
29577;DHT22;16509;53.862;10.672;2022-10-22T04:49:59;12.90;99.90
29577;DHT22;16509;53.862;10.672;2022-10-22T04:52:24;13.60;99.90
29577;DHT22;16509;53.862;10.672;2022-10-22T04:54:50;13.00;99.90
29577;DHT22;16509;53.862;10.672;2022-10-22T04:57:15;12.80;99.90
29577;DHT22;16509;53.862;10.672;2022-10-22T04:59:41;14.10;99.90
29577;DHT22;16509;53.862;10.672;2022-10-22T05:02:06;12.80;99.90
29577;DHT22;16509;53.862;10.672;2022-10-22T05:04:32;13.00;99.90
29577;DHT22;16509;53.862;10.672;2022-10-22T05:06:57;12.60;99.90
29577;DHT22;16509;53.862;10.672;2022-10-22T05:09:23;12.80;99.90
29577;DHT22;16509;53.862;10.672;2022-10-22T05:11:50;12.70;99.90
29577;DHT22;16509;53.862;10.672;2022-10-22T05:14:20;14.00;99.90
29577;DHT22;16509;53.862;10.672;2022-10-22T05:16:45;12.70;99.90
29577;DHT22;16509;53.862;10.672;2022-10-22T05:19:27;12.70;99.90
29577;DHT22;16509;53.862;10.672;2022-10-22T05:21:56;12.80;99.90
29577;DHT22;16509;53.862;10.672;2022-10-22T05:24:22;12.70;99.90
29577;DHT22;16509;53.862;10.672;2022-10-22T05:26:48;13.00;99.90
29577;DHT22;16509;53.862;10.672;2022-10-22T05:29:15;13.00;99.90
29577;DHT22;16509;53.862;10.672;2022-10-22T05:31:40;13.10;99.90
29577;DHT22;16509;53.862;10.672;2022-10-22T05:34:06;14.30;99.90
29577;DHT22;16509;53.862;10.672;2022-10-22T05:36:31;12.80;99.90
29577;DHT22;16509;53.862;10.672;2022-10-22T05:38:57;13.00;99.90
29577;DHT22;16509;53.862;10.672;2022-10-22T05:41:24;14.10;99.90
29577;DHT22;16509;53.862;10.672;2022-10-22T05:43:52;13.90;99.90
29577;DHT22;16509;53.862;10.672;2022-10-22T05:46:20;12.80;99.90
29577;DHT22;16509;53.862;10.672;2022-10-22T05:48:56;14.80;99.90
29577;DHT22;16509;53.862;10.672;2022-10-22T05:51:23;13.10;99.90
29577;DHT22;16509;53.862;10.672;2022-10-22T05:53:54;12.90;99.90
29577;DHT22;16509;53.862;10.672;2022-10-22T05:56:21;12.80;99.90
29577;DHT22;16509;53.862;10.672;2022-10-22T05:58:47;13.90;99.90
29577;DHT22;16509;53.862;10.672;2022-10-22T06:01:19;12.60;99.90
29577;DHT22;16509;53.862;10.672;2022-10-22T06:03:45;12.70;99.90
29577;DHT22;16509;53.862;10.672;2022-10-22T06:08:50;13.00;99.90
29577;DHT22;16509;53.862;10.672;2022-10-22T06:11:17;13.00;99.90
29577;DHT22;16509;53.862;10.672;2022-10-22T06:13:45;12.80;99.90
29577;DHT22;16509;53.862;10.672;2022-10-22T06:16:10;12.60;99.90
29577;DHT22;16509;53.862;10.672;2022-10-22T06:18:36;13.10;99.90
29577;DHT22;16509;53.862;10.672;2022-10-22T06:21:34;12.70;99.90
29577;DHT22;16509;53.862;10.672;2022-10-22T06:24:02;13.00;99.90
29577;DHT22;16509;53.862;10.672;2022-10-22T06:26:29;13.00;99.90
29577;DHT22;16509;53.862;10.672;2022-10-22T06:28:55;12.90;99.90
29577;DHT22;16509;53.862;10.672;2022-10-22T06:31:22;12.80;99.90
29577;DHT22;16509;53.862;10.672;2022-10-22T06:33:47;12.70;99.90
29577;DHT22;16509;53.862;10.672;2022-10-22T06:36:15;12.70;99.90
29577;DHT22;16509;53.862;10.672;2022-10-22T06:38:41;13.10;99.90
29577;DHT22;16509;53.862;10.672;2022-10-22T06:41:09;12.60;99.90
29577;DHT22;16509;53.862;10.672;2022-10-22T06:43:35;12.50;99.90
29577;DHT22;16509;53.862;10.672;2022-10-22T06:46:03;13.70;99.90
29577;DHT22;16509;53.862;10.672;2022-10-22T06:48:29;15.30;99.90
29577;DHT22;16509;53.862;10.672;2022-10-22T06:50:55;14.50;99.90
29577;DHT22;16509;53.862;10.672;2022-10-22T06:53:21;13.50;99.90
29577;DHT22;16509;53.862;10.672;2022-10-22T06:55:46;13.00;99.90
29577;DHT22;16509;53.862;10.672;2022-10-22T06:58:12;13.70;99.90
29577;DHT22;16509;53.862;10.672;2022-10-22T07:00:37;12.90;99.90
29577;DHT22;16509;53.862;10.672;2022-10-22T07:03:03;13.10;99.90
29577;DHT22;16509;53.862;10.672;2022-10-22T07:05:28;13.20;99.90
29577;DHT22;16509;53.862;10.672;2022-10-22T07:07:54;13.10;99.90
29577;DHT22;16509;53.862;10.672;2022-10-22T07:10:19;12.90;99.90
29577;DHT22;16509;53.862;10.672;2022-10-22T07:12:45;13.00;99.90
29577;DHT22;16509;53.862;10.672;2022-10-22T07:15:10;14.80;99.90
29577;DHT22;16509;53.862;10.672;2022-10-22T07:17:36;12.80;99.90
29577;DHT22;16509;53.862;10.672;2022-10-22T07:20:03;12.90;99.90
29577;DHT22;16509;53.862;10.672;2022-10-22T07:22:28;13.30;99.90
29577;DHT22;16509;53.862;10.672;2022-10-22T07:24:54;13.00;99.90
29577;DHT22;16509;53.862;10.672;2022-10-22T07:27:19;13.00;99.90
29577;DHT22;16509;53.862;10.672;2022-10-22T07:29:45;13.10;99.90
29577;DHT22;16509;53.862;10.672;2022-10-22T07:32:11;13.30;99.90
29577;DHT22;16509;53.862;10.672;2022-10-22T07:34:36;13.00;99.90
29577;DHT22;16509;53.862;10.672;2022-10-22T07:37:02;12.80;99.90
29577;DHT22;16509;53.862;10.672;2022-10-22T07:39:27;13.60;99.90
29577;DHT22;16509;53.862;10.672;2022-10-22T07:41:53;13.00;99.90
29577;DHT22;16509;53.862;10.672;2022-10-22T07:44:18;12.90;99.90
29577;DHT22;16509;53.862;10.672;2022-10-22T07:46:44;12.90;99.90
29577;DHT22;16509;53.862;10.672;2022-10-22T07:49:10;12.60;99.90
29577;DHT22;16509;53.862;10.672;2022-10-22T07:51:35;12.90;99.90
29577;DHT22;16509;53.862;10.672;2022-10-22T07:54:01;13.30;99.90
29577;DHT22;16509;53.862;10.672;2022-10-22T07:56:26;13.00;99.90
29577;DHT22;16509;53.862;10.672;2022-10-22T07:58:52;13.10;99.90
29577;DHT22;16509;53.862;10.672;2022-10-22T08:01:17;15.30;99.90
29577;DHT22;16509;53.862;10.672;2022-10-22T08:03:43;15.10;99.90
29577;DHT22;16509;53.862;10.672;2022-10-22T08:06:11;13.40;99.90
29577;DHT22;16509;53.862;10.672;2022-10-22T08:08:37;13.10;99.90
29577;DHT22;16509;53.862;10.672;2022-10-22T08:11:02;13.10;99.90
29577;DHT22;16509;53.862;10.672;2022-10-22T08:13:28;13.00;99.90
29577;DHT22;16509;53.862;10.672;2022-10-22T08:15:59;13.00;99.90
29577;DHT22;16509;53.862;10.672;2022-10-22T08:18:27;15.50;99.90
29577;DHT22;16509;53.862;10.672;2022-10-22T08:20:57;15.20;99.90
29577;DHT22;16509;53.862;10.672;2022-10-22T08:23:23;14.30;99.90
29577;DHT22;16509;53.862;10.672;2022-10-22T08:25:49;12.90;99.90
29577;DHT22;16509;53.862;10.672;2022-10-22T08:28:15;14.70;99.90
29577;DHT22;16509;53.862;10.672;2022-10-22T08:30:41;13.10;99.90
29577;DHT22;16509;53.862;10.672;2022-10-22T08:33:09;13.10;99.90
29577;DHT22;16509;53.862;10.672;2022-10-22T08:35:34;13.40;99.90
29577;DHT22;16509;53.862;10.672;2022-10-22T08:38:00;13.60;99.90
29577;DHT22;16509;53.862;10.672;2022-10-22T08:40:36;13.90;99.90
29577;DHT22;16509;53.862;10.672;2022-10-22T08:43:05;13.90;99.90
29577;DHT22;16509;53.862;10.672;2022-10-22T08:48:46;13.90;99.90
29577;DHT22;16509;53.862;10.672;2022-10-22T08:51:19;13.90;99.90
29577;DHT22;16509;53.862;10.672;2022-10-22T08:56:34;13.90;99.90
29577;DHT22;16509;53.862;10.672;2022-10-22T08:59:16;13.90;99.90
29577;DHT22;16509;53.862;10.672;2022-10-22T09:01:46;13.70;99.90
29577;DHT22;16509;53.862;10.672;2022-10-22T09:04:22;13.70;99.90
29577;DHT22;16509;53.862;10.672;2022-10-22T09:06:51;13.90;99.90
29577;DHT22;16509;53.862;10.672;2022-10-22T09:09:18;14.10;99.90
29577;DHT22;16509;53.862;10.672;2022-10-22T09:11:49;15.50;99.90
29577;DHT22;16509;53.862;10.672;2022-10-22T09:14:21;16.30;99.90
29577;DHT22;16509;53.862;10.672;2022-10-22T09:19:35;14.10;99.90
29577;DHT22;16509;53.862;10.672;2022-10-22T09:25:31;14.20;99.90
29577;DHT22;16509;53.862;10.672;2022-10-22T09:27:31;14.90;99.90
29577;DHT22;16509;53.862;10.672;2022-10-22T09:29:57;14.30;99.90
29577;DHT22;16509;53.862;10.672;2022-10-22T09:32:25;14.30;99.90
29577;DHT22;16509;53.862;10.672;2022-10-22T09:34:55;14.70;99.90
29577;DHT22;16509;53.862;10.672;2022-10-22T09:37:26;14.60;99.90
29577;DHT22;16509;53.862;10.672;2022-10-22T09:39:52;14.10;99.90
29577;DHT22;16509;53.862;10.672;2022-10-22T09:42:19;14.80;99.90
29577;DHT22;16509;53.862;10.672;2022-10-22T09:44:58;14.40;99.90
29577;DHT22;16509;53.862;10.672;2022-10-22T09:52:45;14.70;99.90
29577;DHT22;16509;53.862;10.672;2022-10-22T09:55:17;15.20;99.90
29577;DHT22;16509;53.862;10.672;2022-10-22T09:57:43;14.90;99.90
29577;DHT22;16509;53.862;10.672;2022-10-22T10:00:10;14.90;99.90
29577;DHT22;16509;53.862;10.672;2022-10-22T10:02:39;15.20;99.90
29577;DHT22;16509;53.862;10.672;2022-10-22T10:05:11;15.40;99.90
29577;DHT22;16509;53.862;10.672;2022-10-22T10:07:41;15.50;99.90
29577;DHT22;16509;53.862;10.672;2022-10-22T10:10:20;15.10;99.90
29577;DHT22;16509;53.862;10.672;2022-10-22T10:12:59;16.20;99.90
29577;DHT22;16509;53.862;10.672;2022-10-22T10:35:27;16.60;99.90
29577;DHT22;16509;53.862;10.672;2022-10-22T10:41:31;16.80;99.90
29577;DHT22;16509;53.862;10.672;2022-10-22T10:50:04;16.90;99.90
29577;DHT22;16509;53.862;10.672;2022-10-22T10:52:40;16.90;99.90
29577;DHT22;16509;53.862;10.672;2022-10-22T10:55:21;17.90;99.90
29577;DHT22;16509;53.862;10.672;2022-10-22T10:58:05;17.10;99.90
29577;DHT22;16509;53.862;10.672;2022-10-22T11:00:52;17.10;99.90
29577;DHT22;16509;53.862;10.672;2022-10-22T11:04:07;17.20;99.90
29577;DHT22;16509;53.862;10.672;2022-10-22T11:06:15;17.30;99.90
29577;DHT22;16509;53.862;10.672;2022-10-22T11:11:47;17.30;99.90
29577;DHT22;16509;53.862;10.672;2022-10-22T11:16:55;17.60;99.90
29577;DHT22;16509;53.862;10.672;2022-10-22T11:19:51;17.70;99.90
29577;DHT22;16509;53.862;10.672;2022-10-22T11:22:25;17.80;99.90
29577;DHT22;16509;53.862;10.672;2022-10-22T11:25:11;17.90;99.90
29577;DHT22;16509;53.862;10.672;2022-10-22T11:27:50;18.10;99.90
29577;DHT22;16509;53.862;10.672;2022-10-22T11:30:23;18.20;99.90
29577;DHT22;16509;53.862;10.672;2022-10-22T11:32:53;18.50;99.90
29577;DHT22;16509;53.862;10.672;2022-10-22T11:35:23;18.60;99.90
29577;DHT22;16509;53.862;10.672;2022-10-22T11:37:50;18.90;99.90
29577;DHT22;16509;53.862;10.672;2022-10-22T11:43:03;20.20;99.90
29577;DHT22;16509;53.862;10.672;2022-10-22T11:45:33;19.00;99.90
29577;DHT22;16509;53.862;10.672;2022-10-22T11:48:17;19.10;99.90
29577;DHT22;16509;53.862;10.672;2022-10-22T11:50:55;19.10;99.90
29577;DHT22;16509;53.862;10.672;2022-10-22T11:56:37;19.20;99.90
29577;DHT22;16509;53.862;10.672;2022-10-22T12:03:38;19.10;99.90
29577;DHT22;16509;53.862;10.672;2022-10-22T12:08:44;18.90;99.90
29577;DHT22;16509;53.862;10.672;2022-10-22T12:14:02;18.70;99.90
29577;DHT22;16509;53.862;10.672;2022-10-22T12:21:37;18.40;99.90
29577;DHT22;16509;53.862;10.672;2022-10-22T12:24:03;18.30;99.90
29577;DHT22;16509;53.862;10.672;2022-10-22T12:26:31;18.30;99.90
29577;DHT22;16509;53.862;10.672;2022-10-22T12:29:00;19.00;99.90
29577;DHT22;16509;53.862;10.672;2022-10-22T12:31:27;18.20;99.90
29577;DHT22;16509;53.862;10.672;2022-10-22T12:33:59;21.20;99.90
29577;DHT22;16509;53.862;10.672;2022-10-22T12:36:26;18.40;99.90
29577;DHT22;16509;53.862;10.672;2022-10-22T12:38:51;18.20;99.90
29577;DHT22;16509;53.862;10.672;2022-10-22T12:41:20;18.70;99.90
29577;DHT22;16509;53.862;10.672;2022-10-22T12:43:45;19.30;99.90
29577;DHT22;16509;53.862;10.672;2022-10-22T12:46:12;18.90;99.90
29577;DHT22;16509;53.862;10.672;2022-10-22T12:48:41;21.00;99.90
29577;DHT22;16509;53.862;10.672;2022-10-22T12:51:11;21.00;99.90
29577;DHT22;16509;53.862;10.672;2022-10-22T12:53:44;19.40;99.90
29577;DHT22;16509;53.862;10.672;2022-10-22T12:56:13;19.00;99.90
29577;DHT22;16509;53.862;10.672;2022-10-22T12:58:43;19.20;99.90
29577;DHT22;16509;53.862;10.672;2022-10-22T13:01:11;18.50;99.90
29577;DHT22;16509;53.862;10.672;2022-10-22T13:03:43;19.70;99.90
29577;DHT22;16509;53.862;10.672;2022-10-22T13:11:20;18.70;99.90
29577;DHT22;16509;53.862;10.672;2022-10-22T13:13:45;18.70;99.90
29577;DHT22;16509;53.862;10.672;2022-10-22T13:16:18;18.90;99.90
29577;DHT22;16509;53.862;10.672;2022-10-22T13:18:45;19.30;99.90
29577;DHT22;16509;53.862;10.672;2022-10-22T13:21:28;18.80;99.90
29577;DHT22;16509;53.862;10.672;2022-10-22T13:23:56;18.80;99.90
29577;DHT22;16509;53.862;10.672;2022-10-22T13:26:24;18.80;99.90
29577;DHT22;16509;53.862;10.672;2022-10-22T13:28:55;19.40;99.90
29577;DHT22;16509;53.862;10.672;2022-10-22T13:31:26;18.80;99.90
29577;DHT22;16509;53.862;10.672;2022-10-22T13:34:00;19.10;99.90
29577;DHT22;16509;53.862;10.672;2022-10-22T13:36:26;18.80;99.90
29577;DHT22;16509;53.862;10.672;2022-10-22T13:38:52;19.00;99.90
29577;DHT22;16509;53.862;10.672;2022-10-22T13:41:21;19.10;99.90
29577;DHT22;16509;53.862;10.672;2022-10-22T13:43:46;19.40;99.90
29577;DHT22;16509;53.862;10.672;2022-10-22T13:46:12;19.10;99.90
29577;DHT22;16509;53.862;10.672;2022-10-22T13:48:38;19.60;99.90
29577;DHT22;16509;53.862;10.672;2022-10-22T13:51:06;20.20;99.90
29577;DHT22;16509;53.862;10.672;2022-10-22T13:53:35;19.30;99.90
29577;DHT22;16509;53.862;10.672;2022-10-22T13:56:00;20.20;99.90
29577;DHT22;16509;53.862;10.672;2022-10-22T13:58:26;18.50;99.90
29577;DHT22;16509;53.862;10.672;2022-10-22T14:00:57;19.10;99.90
29577;DHT22;16509;53.862;10.672;2022-10-22T14:03:30;18.80;99.90
29577;DHT22;16509;53.862;10.672;2022-10-22T14:05:57;18.70;99.90
29577;DHT22;16509;53.862;10.672;2022-10-22T14:08:23;18.50;99.90
29577;DHT22;16509;53.862;10.672;2022-10-22T14:10:50;19.40;99.90
29577;DHT22;16509;53.862;10.672;2022-10-22T14:13:18;18.60;99.90
29577;DHT22;16509;53.862;10.672;2022-10-22T14:15:46;19.50;99.90
29577;DHT22;16509;53.862;10.672;2022-10-22T14:18:15;19.50;99.90
29577;DHT22;16509;53.862;10.672;2022-10-22T14:20:48;18.60;99.90
29577;DHT22;16509;53.862;10.672;2022-10-22T14:23:18;18.30;99.90
29577;DHT22;16509;53.862;10.672;2022-10-22T14:25:44;18.70;99.90
29577;DHT22;16509;53.862;10.672;2022-10-22T14:28:12;19.80;99.90
29577;DHT22;16509;53.862;10.672;2022-10-22T14:30:39;18.40;99.90
29577;DHT22;16509;53.862;10.672;2022-10-22T14:33:23;19.10;99.90
29577;DHT22;16509;53.862;10.672;2022-10-22T14:35:49;18.10;99.90
29577;DHT22;16509;53.862;10.672;2022-10-22T14:38:16;18.10;99.90
29577;DHT22;16509;53.862;10.672;2022-10-22T14:40:42;17.90;99.90
29577;DHT22;16509;53.862;10.672;2022-10-22T14:43:23;18.10;99.90
29577;DHT22;16509;53.862;10.672;2022-10-22T14:45:50;18.20;99.90
29577;DHT22;16509;53.862;10.672;2022-10-22T14:48:16;18.20;99.90
29577;DHT22;16509;53.862;10.672;2022-10-22T14:50:43;18.70;99.90
29577;DHT22;16509;53.862;10.672;2022-10-22T14:53:09;19.00;99.90
29577;DHT22;16509;53.862;10.672;2022-10-22T14:55:35;18.00;99.90
29577;DHT22;16509;53.862;10.672;2022-10-22T14:58:01;18.20;99.90
29577;DHT22;16509;53.862;10.672;2022-10-22T15:00:26;18.60;99.90
29577;DHT22;16509;53.862;10.672;2022-10-22T15:02:52;18.90;99.90
29577;DHT22;16509;53.862;10.672;2022-10-22T15:05:22;18.30;99.90
29577;DHT22;16509;53.862;10.672;2022-10-22T15:07:48;19.90;99.90
29577;DHT22;16509;53.862;10.672;2022-10-22T15:10:14;18.10;99.90
29577;DHT22;16509;53.862;10.672;2022-10-22T15:12:40;18.00;99.90
29577;DHT22;16509;53.862;10.672;2022-10-22T15:15:06;19.30;99.90
29577;DHT22;16509;53.862;10.672;2022-10-22T15:17:31;18.10;99.90
29577;DHT22;16509;53.862;10.672;2022-10-22T15:20:00;18.10;99.90
29577;DHT22;16509;53.862;10.672;2022-10-22T15:22:29;18.00;99.90
29577;DHT22;16509;53.862;10.672;2022-10-22T15:24:56;18.10;99.90
29577;DHT22;16509;53.862;10.672;2022-10-22T15:27:23;17.50;99.90
29577;DHT22;16509;53.862;10.672;2022-10-22T15:29:49;17.90;99.90
29577;DHT22;16509;53.862;10.672;2022-10-22T15:32:15;18.70;99.90
29577;DHT22;16509;53.862;10.672;2022-10-22T15:34:40;18.50;99.90
29577;DHT22;16509;53.862;10.672;2022-10-22T15:37:09;17.70;99.90
29577;DHT22;16509;53.862;10.672;2022-10-22T15:39:38;17.90;99.90
29577;DHT22;16509;53.862;10.672;2022-10-22T15:42:04;18.40;99.90
29577;DHT22;16509;53.862;10.672;2022-10-22T15:44:30;17.60;99.90
29577;DHT22;16509;53.862;10.672;2022-10-22T15:46:56;17.50;99.90
29577;DHT22;16509;53.862;10.672;2022-10-22T15:49:24;19.20;99.90
29577;DHT22;16509;53.862;10.672;2022-10-22T15:51:50;17.60;99.90
29577;DHT22;16509;53.862;10.672;2022-10-22T15:54:27;17.50;99.90
29577;DHT22;16509;53.862;10.672;2022-10-22T15:56:54;17.30;99.90
29577;DHT22;16509;53.862;10.672;2022-10-22T15:59:21;19.10;99.90
29577;DHT22;16509;53.862;10.672;2022-10-22T16:01:46;18.60;99.90
29577;DHT22;16509;53.862;10.672;2022-10-22T16:04:13;19.20;99.90
29577;DHT22;16509;53.862;10.672;2022-10-22T16:06:44;17.30;99.90
29577;DHT22;16509;53.862;10.672;2022-10-22T16:09:21;18.60;99.90
29577;DHT22;16509;53.862;10.672;2022-10-22T16:11:48;18.60;99.90
29577;DHT22;16509;53.862;10.672;2022-10-22T16:14:16;19.60;99.90
29577;DHT22;16509;53.862;10.672;2022-10-22T16:16:44;19.00;99.90
29577;DHT22;16509;53.862;10.672;2022-10-22T16:19:11;19.00;99.90
29577;DHT22;16509;53.862;10.672;2022-10-22T16:21:38;19.60;99.90
29577;DHT22;16509;53.862;10.672;2022-10-22T16:24:04;16.90;99.90
29577;DHT22;16509;53.862;10.672;2022-10-22T16:26:30;16.80;99.90
29577;DHT22;16509;53.862;10.672;2022-10-22T16:28:57;18.10;99.90
29577;DHT22;16509;53.862;10.672;2022-10-22T16:31:23;16.80;99.90
29577;DHT22;16509;53.862;10.672;2022-10-22T16:33:48;17.30;99.90
29577;DHT22;16509;53.862;10.672;2022-10-22T16:36:16;16.10;99.90
29577;DHT22;16509;53.862;10.672;2022-10-22T16:38:43;16.10;99.90
29577;DHT22;16509;53.862;10.672;2022-10-22T16:41:11;18.10;99.90
29577;DHT22;16509;53.862;10.672;2022-10-22T16:43:38;17.70;99.90
29577;DHT22;16509;53.862;10.672;2022-10-22T16:46:04;16.60;99.90
29577;DHT22;16509;53.862;10.672;2022-10-22T16:48:31;15.80;99.90
29577;DHT22;16509;53.862;10.672;2022-10-22T16:50:57;17.90;99.90
29577;DHT22;16509;53.862;10.672;2022-10-22T16:53:23;16.50;99.90
29577;DHT22;16509;53.862;10.672;2022-10-22T16:55:48;17.90;99.90
29577;DHT22;16509;53.862;10.672;2022-10-22T16:58:14;17.30;99.90
29577;DHT22;16509;53.862;10.672;2022-10-22T17:00:39;16.20;99.90
29577;DHT22;16509;53.862;10.672;2022-10-22T17:03:05;18.10;99.90
29577;DHT22;16509;53.862;10.672;2022-10-22T17:05:34;17.60;99.90
29577;DHT22;16509;53.862;10.672;2022-10-22T17:08:00;16.20;99.90
29577;DHT22;16509;53.862;10.672;2022-10-22T17:10:26;15.60;99.90